createdAt,value
2019-02-16T00:00:45.105Z,11.80
2019-02-16T00:03:14.087Z,13.03
2019-02-16T00:05:43.056Z,12.23
2019-02-16T00:08:12.035Z,11.90
2019-02-16T00:10:41.238Z,11.75
2019-02-16T00:13:10.222Z,12.23
2019-02-16T00:15:39.356Z,12.18
2019-02-16T00:18:08.344Z,12.50
2019-02-16T00:20:37.498Z,12.40
2019-02-16T00:23:06.530Z,11.90
2019-02-16T00:25:35.520Z,12.07
2019-02-16T00:28:04.478Z,13.05
2019-02-16T00:30:33.485Z,11.95
2019-02-16T00:33:02.454Z,11.73
2019-02-16T00:35:31.502Z,11.73
2019-02-16T00:38:00.458Z,11.25
2019-02-16T00:40:29.435Z,11.43
2019-02-16T00:42:58.421Z,11.75
2019-02-16T00:45:27.437Z,12.68
2019-02-16T00:47:56.482Z,11.63
2019-02-16T00:50:27.111Z,11.97
2019-02-16T00:52:56.089Z,11.70
2019-02-16T00:55:25.146Z,11.50
2019-02-16T00:57:54.100Z,11.83
2019-02-16T01:00:23.071Z,12.18
2019-02-16T01:02:52.079Z,12.50
2019-02-16T01:05:21.146Z,12.47
2019-02-16T01:07:50.176Z,12.05
2019-02-16T01:10:19.256Z,11.78
2019-02-16T01:12:48.406Z,12.50
2019-02-16T01:15:17.421Z,12.58
2019-02-16T01:17:46.404Z,12.20
2019-02-16T01:20:15.536Z,11.65
2019-02-16T01:22:44.610Z,12.37
2019-02-16T01:25:13.655Z,11.53
2019-02-16T01:27:42.715Z,12.30
2019-02-16T01:30:11.913Z,12.20
2019-02-16T01:32:40.907Z,12.28
2019-02-16T01:35:09.998Z,12.25
2019-02-16T01:37:38.975Z,11.40
2019-02-16T01:40:09.275Z,11.60
2019-02-16T01:42:38.394Z,11.57
2019-02-16T01:45:08.842Z,11.33
2019-02-16T01:47:37.818Z,11.48
2019-02-16T01:50:08.017Z,12.05
2019-02-16T01:52:37.124Z,11.50
2019-02-16T01:55:08.527Z,11.30
2019-02-16T01:57:37.494Z,11.57
2019-02-16T02:00:08.303Z,11.38
2019-02-16T02:02:37.279Z,11.48
2019-02-16T02:05:07.187Z,11.70
2019-02-16T02:07:36.232Z,11.60
2019-02-16T02:10:07.040Z,11.08
2019-02-16T02:12:36.046Z,11.45
2019-02-16T02:15:07.953Z,11.48
2019-02-16T02:17:36.996Z,12.03
2019-02-16T02:20:08.283Z,11.50
2019-02-16T02:22:37.576Z,11.48
2019-02-16T02:25:09.682Z,11.05
2019-02-16T02:27:38.671Z,11.48
2019-02-16T02:30:10.055Z,11.85
2019-02-16T02:32:39.107Z,10.80
2019-02-16T02:35:08.925Z,10.90
2019-02-16T02:37:38.031Z,11.60
2019-02-16T02:40:08.348Z,10.85
2019-02-16T02:42:37.581Z,10.95
2019-02-16T02:45:09.567Z,10.60
2019-02-16T02:47:38.542Z,10.60
2019-02-16T02:50:08.000Z,10.60
2019-02-16T02:52:36.995Z,10.75
2019-02-16T02:55:07.205Z,11.12
2019-02-16T02:57:36.160Z,10.65
2019-02-16T03:00:08.221Z,10.30
2019-02-16T03:02:37.370Z,10.80
2019-02-16T03:05:08.664Z,10.65
2019-02-16T03:07:37.642Z,10.43
2019-02-16T03:10:07.558Z,10.15
2019-02-16T03:12:36.643Z,10.72
2019-02-16T03:15:06.747Z,10.32
2019-02-16T03:17:35.860Z,10.45
2019-02-16T03:20:05.644Z,10.38
2019-02-16T03:23:00.253Z,10.18
2019-02-16T03:25:29.230Z,10.28
2019-02-16T03:28:12.971Z,10.30
2019-02-16T03:31:13.514Z,9.65
2019-02-16T03:33:48.113Z,9.75
2019-02-16T03:36:35.209Z,9.58
2019-02-16T03:39:07.343Z,10.08
2019-02-16T03:41:36.302Z,10.03
2019-02-16T03:44:05.260Z,9.80
2019-02-16T03:46:34.244Z,9.85
2019-02-16T03:49:04.779Z,9.55
2019-02-16T03:51:33.744Z,9.83
2019-02-16T03:54:02.808Z,9.38
2019-02-16T03:56:31.864Z,9.15
2019-02-16T03:59:00.899Z,10.10
2019-02-16T04:01:29.936Z,10.00
2019-02-16T04:03:58.990Z,9.58
2019-02-16T04:06:28.028Z,10.20
2019-02-16T04:08:57.000Z,8.85
2019-02-16T04:11:26.048Z,9.03
2019-02-16T04:13:55.022Z,8.83
2019-02-16T04:16:23.991Z,9.23
2019-02-16T04:18:52.947Z,9.15
2019-02-16T04:21:21.954Z,9.58
2019-02-16T04:23:50.905Z,9.60
2019-02-16T04:26:19.883Z,9.53
2019-02-16T04:28:48.872Z,9.48
2019-02-16T04:31:17.918Z,9.08
2019-02-16T04:33:46.949Z,8.73
2019-02-16T04:36:16.841Z,9.05
2019-02-16T04:38:45.801Z,9.30
2019-02-16T04:41:14.836Z,9.63
2019-02-16T04:43:44.127Z,8.60
2019-02-16T04:46:13.163Z,8.80
2019-02-16T04:48:42.203Z,8.88
2019-02-16T04:51:11.174Z,8.33
2019-02-16T04:53:40.178Z,8.45
2019-02-16T04:56:10.415Z,8.08
2019-02-16T04:58:39.669Z,8.98
2019-02-16T05:01:08.629Z,8.05
2019-02-16T05:03:37.672Z,8.10
2019-02-16T05:06:07.035Z,8.15
2019-02-16T05:08:35.993Z,8.03
2019-02-16T05:11:05.008Z,8.45
2019-02-16T05:13:33.981Z,8.35
2019-02-16T05:16:02.954Z,8.18
2019-02-16T05:18:32.082Z,8.55
2019-02-16T05:21:01.138Z,8.20
2019-02-16T05:23:30.083Z,8.20
2019-02-16T05:25:59.051Z,7.87
2019-02-16T05:28:28.015Z,7.58
2019-02-16T05:30:56.985Z,8.03
2019-02-16T05:33:25.950Z,8.15
2019-02-16T05:35:54.904Z,7.60
2019-02-16T05:38:23.885Z,7.62
2019-02-16T05:40:52.917Z,7.42
2019-02-16T05:43:21.876Z,7.20
2019-02-16T05:45:50.885Z,7.87
2019-02-16T05:48:19.841Z,7.37
2019-02-16T05:50:48.976Z,7.47
2019-02-16T05:53:19.790Z,7.55
2019-02-16T05:55:48.627Z,7.58
2019-02-16T05:58:17.959Z,7.22
2019-02-16T06:00:47.111Z,7.90
2019-02-16T06:03:16.128Z,7.92
2019-02-16T06:05:45.113Z,7.47
2019-02-16T06:08:14.163Z,7.15
2019-02-16T06:10:43.155Z,6.75
2019-02-16T06:13:12.116Z,7.25
2019-02-16T06:15:41.123Z,6.72
2019-02-16T06:18:10.157Z,7.25
2019-02-16T06:20:39.150Z,7.15
2019-02-16T06:23:08.115Z,6.28
2019-02-16T06:25:37.095Z,6.90
2019-02-16T06:28:06.095Z,6.87
2019-02-16T06:30:35.049Z,7.55
2019-02-16T06:33:04.018Z,7.33
2019-02-16T06:35:40.385Z,7.22
2019-02-16T06:38:09.346Z,7.35
2019-02-16T06:40:38.312Z,7.47
2019-02-16T06:43:07.323Z,7.03
2019-02-16T06:45:36.277Z,6.78
2019-02-16T06:48:05.241Z,7.40
2019-02-16T06:50:37.009Z,7.08
2019-02-16T06:53:12.950Z,6.87
2019-02-16T06:55:37.314Z,6.70
2019-02-16T06:58:06.265Z,6.92
2019-02-16T07:00:35.327Z,6.50
2019-02-16T07:03:04.394Z,6.58
2019-02-16T07:05:33.427Z,6.78
2019-02-16T07:08:02.386Z,6.90
2019-02-16T07:10:31.363Z,6.37
2019-02-16T07:13:00.400Z,6.22
2019-02-16T07:15:29.551Z,6.60
2019-02-16T07:18:00.187Z,6.12
2019-02-16T07:20:29.238Z,6.33
2019-02-16T07:22:58.275Z,7.58
2019-02-16T07:25:27.273Z,8.20
2019-02-16T07:27:56.250Z,7.60
2019-02-16T07:30:25.285Z,8.28
2019-02-16T07:32:54.267Z,8.10
2019-02-16T07:35:23.300Z,8.83
2019-02-16T07:37:52.270Z,8.70
2019-02-16T07:40:21.487Z,8.05
2019-02-16T07:42:55.239Z,8.48
2019-02-16T07:45:34.037Z,8.05
2019-02-16T07:48:13.960Z,7.97
2019-02-16T07:50:50.373Z,8.83
2019-02-16T07:53:20.991Z,8.33
2019-02-16T07:55:51.626Z,8.33
2019-02-16T07:58:25.247Z,8.60
2019-02-16T08:01:08.279Z,8.03
2019-02-16T08:03:44.767Z,8.73
2019-02-16T08:06:15.416Z,8.45
2019-02-16T08:08:46.093Z,8.25
2019-02-16T08:11:22.641Z,9.23
2019-02-16T08:13:58.092Z,8.45
2019-02-16T08:16:28.874Z,8.93
2019-02-16T08:19:15.588Z,9.00
2019-02-16T08:21:48.851Z,9.10
2019-02-16T08:24:35.986Z,8.83
2019-02-16T08:27:06.759Z,9.45
2019-02-16T08:29:53.705Z,9.08
2019-02-16T08:32:42.406Z,8.75
2019-02-16T08:35:13.237Z,9.60
2019-02-16T08:37:43.890Z,8.90
2019-02-16T08:40:17.170Z,10.03
2019-02-16T08:43:04.283Z,9.10
2019-02-16T08:45:41.064Z,11.15
2019-02-16T08:48:11.704Z,11.83
2019-02-16T08:50:54.410Z,9.73
2019-02-16T08:53:25.026Z,10.55
2019-02-16T08:55:55.625Z,10.80
2019-02-16T08:58:38.138Z,11.22
2019-02-16T09:01:11.575Z,10.63
2019-02-16T09:03:53.989Z,9.75
2019-02-16T09:06:27.434Z,9.63
2019-02-16T09:08:58.441Z,9.55
2019-02-16T09:11:41.118Z,9.33
2019-02-16T09:14:29.545Z,8.48
2019-02-16T09:17:02.724Z,8.95
2019-02-16T09:19:49.458Z,8.03
2019-02-16T09:22:23.038Z,9.73
2019-02-16T09:25:09.809Z,9.80
2019-02-16T09:27:43.254Z,10.60
2019-02-16T09:30:13.862Z,11.90
2019-02-16T09:32:47.425Z,12.43
2019-02-16T09:35:35.924Z,14.38
2019-02-16T09:38:23.062Z,14.93
2019-02-16T09:40:53.723Z,14.75
2019-02-16T09:43:24.420Z,15.08
2019-02-16T09:46:04.103Z,15.28
2019-02-16T09:48:34.980Z,15.20
2019-02-16T09:51:05.695Z,15.95
2019-02-16T09:53:48.532Z,16.00
2019-02-16T09:56:22.460Z,16.15
2019-02-16T09:58:55.932Z,15.08
2019-02-16T10:01:35.516Z,14.47
2019-02-16T10:04:06.127Z,15.63
2019-02-16T10:06:53.103Z,15.05
2019-02-16T10:09:38.890Z,13.83
2019-02-16T10:12:09.507Z,14.87
2019-02-16T10:14:40.138Z,16.40
2019-02-16T10:17:22.693Z,22.52
2019-02-16T10:19:57.403Z,21.52
2019-02-16T10:22:29.118Z,19.65
2019-02-16T10:25:15.681Z,19.32
2019-02-16T10:27:46.461Z,21.75
2019-02-16T10:30:19.641Z,21.48
2019-02-16T10:33:02.220Z,21.65
2019-02-16T10:35:32.898Z,21.23
2019-02-16T10:38:06.388Z,19.32
2019-02-16T10:40:42.931Z,19.57
2019-02-16T10:43:13.559Z,18.73
2019-02-16T10:45:47.141Z,19.37
2019-02-16T10:48:20.765Z,19.02
2019-02-16T10:50:57.160Z,17.48
2019-02-16T10:53:39.904Z,18.00
2019-02-16T10:56:25.403Z,19.15
2019-02-16T10:58:56.060Z,18.62
2019-02-16T11:01:32.614Z,20.68
2019-02-16T11:04:06.043Z,19.62
2019-02-16T11:06:36.706Z,19.15
2019-02-16T11:09:14.618Z,20.08
2019-02-16T11:11:51.142Z,20.65
2019-02-16T11:14:24.439Z,20.08
2019-02-16T11:17:09.996Z,19.35
2019-02-16T11:19:43.485Z,18.98
2019-02-16T11:22:14.109Z,18.52
2019-02-16T11:24:47.421Z,18.25
2019-02-16T11:27:30.138Z,17.85
2019-02-16T11:30:03.686Z,17.55
2019-02-16T11:32:46.237Z,18.40
2019-02-16T11:35:16.920Z,17.67
2019-02-16T11:37:56.718Z,18.12
2019-02-16T11:40:36.096Z,18.23
2019-02-16T11:43:15.601Z,17.07
2019-02-16T11:45:46.285Z,17.05
2019-02-16T11:48:16.938Z,17.23
2019-02-16T11:50:50.746Z,16.55
2019-02-16T11:53:30.507Z,17.25
2019-02-16T11:56:17.440Z,16.55
2019-02-16T11:58:50.967Z,17.85
2019-02-16T12:01:36.854Z,16.95
2019-02-16T12:04:19.497Z,16.45
2019-02-16T12:06:50.184Z,17.17
2019-02-16T12:09:26.764Z,18.87
2019-02-16T12:11:57.374Z,18.87
2019-02-16T12:14:30.698Z,18.87
2019-02-16T12:17:17.587Z,20.50
2019-02-16T12:19:48.268Z,20.00
2019-02-16T12:22:18.942Z,20.23
2019-02-16T12:25:06.469Z,20.17
2019-02-16T12:27:46.358Z,20.85
2019-02-16T12:30:22.594Z,18.90
2019-02-16T12:32:53.272Z,18.20
2019-02-16T12:35:26.547Z,17.82
2019-02-16T12:37:57.334Z,18.77
2019-02-16T12:40:27.983Z,18.52
2019-02-16T12:43:16.640Z,16.57
2019-02-16T12:45:51.422Z,16.85
2019-02-16T12:48:22.330Z,16.52
2019-02-16T12:50:55.721Z,16.42
2019-02-16T12:53:26.608Z,17.48
2019-02-16T12:55:57.206Z,16.07
2019-02-16T12:58:36.991Z,15.50
2019-02-16T13:01:07.662Z,16.37
2019-02-16T13:03:44.226Z,16.02
2019-02-16T13:06:20.547Z,15.78
2019-02-16T13:08:53.948Z,15.88
2019-02-16T13:11:33.575Z,15.43
2019-02-16T13:14:04.213Z,15.35
2019-02-16T13:16:37.562Z,15.90
2019-02-16T13:19:14.777Z,16.00
2019-02-16T13:21:45.378Z,16.52
2019-02-16T13:24:25.162Z,16.15
2019-02-16T13:27:01.848Z,15.80
2019-02-16T13:29:41.547Z,15.98
2019-02-16T13:32:28.961Z,15.20
2019-02-16T13:35:17.726Z,15.38
2019-02-16T13:38:00.375Z,15.45
2019-02-16T13:40:31.038Z,14.43
2019-02-16T13:43:01.683Z,14.60
2019-02-16T13:45:47.581Z,14.18
2019-02-16T13:48:18.416Z,14.63
2019-02-16T13:51:04.094Z,14.83
2019-02-16T13:53:43.649Z,14.85
2019-02-16T13:56:14.269Z,14.85
2019-02-16T13:59:01.035Z,14.33
2019-02-16T14:01:31.689Z,14.15
2019-02-16T14:04:08.144Z,14.00
2019-02-16T14:06:38.771Z,14.30
2019-02-16T14:09:15.410Z,13.78
2019-02-16T14:11:46.052Z,14.00
2019-02-16T14:14:19.614Z,14.23
2019-02-16T14:16:56.211Z,14.15
2019-02-16T14:19:25.209Z,14.58
2019-02-16T14:21:54.182Z,13.88
2019-02-16T14:24:40.118Z,14.75
2019-02-16T14:27:09.101Z,14.55
2019-02-16T14:29:38.191Z,15.45
2019-02-16T14:32:07.212Z,13.45
2019-02-16T14:34:36.288Z,14.33
2019-02-16T14:37:06.891Z,14.15
2019-02-16T14:39:35.883Z,14.23
2019-02-16T14:42:04.872Z,15.23
2019-02-16T14:44:33.837Z,14.93
2019-02-16T14:47:02.838Z,14.45
2019-02-16T14:49:31.818Z,14.28
2019-02-16T14:52:01.002Z,13.35
2019-02-16T14:54:29.998Z,14.78
2019-02-16T14:56:58.986Z,13.55
2019-02-16T14:59:27.967Z,14.47
2019-02-16T15:01:56.946Z,14.50
2019-02-16T15:04:25.983Z,13.70
2019-02-16T15:06:54.945Z,15.28
2019-02-16T15:09:24.482Z,14.05
2019-02-16T15:11:53.484Z,14.90
2019-02-16T15:14:22.466Z,14.20
2019-02-16T15:16:51.428Z,14.80
2019-02-16T15:19:20.414Z,15.23
2019-02-16T15:21:49.374Z,15.10
2019-02-16T15:24:18.392Z,14.13
2019-02-16T15:26:47.486Z,16.27
2019-02-16T15:29:16.474Z,15.05
2019-02-16T15:31:45.467Z,15.28
2019-02-16T15:34:14.502Z,14.58
2019-02-16T15:36:43.494Z,15.38
2019-02-16T15:39:12.462Z,15.78
2019-02-16T15:41:41.498Z,16.10
2019-02-16T15:44:10.886Z,16.00
2019-02-16T15:46:40.035Z,16.67
2019-02-16T15:49:09.151Z,16.20
2019-02-16T15:51:38.159Z,16.97
2019-02-16T15:54:07.124Z,18.85
2019-02-16T15:56:36.164Z,19.10
2019-02-16T15:59:05.182Z,16.93
2019-02-16T16:01:34.348Z,17.55
2019-02-16T16:04:03.520Z,17.98
2019-02-16T16:06:32.613Z,17.50
2019-02-16T16:09:03.255Z,17.65
2019-02-16T16:11:33.863Z,18.48
2019-02-16T16:14:07.503Z,17.55
2019-02-16T16:16:54.453Z,18.48
2019-02-16T16:19:31.042Z,17.27
2019-02-16T16:22:02.129Z,17.75
2019-02-16T16:24:35.497Z,17.90
2019-02-16T16:27:09.204Z,17.73
2019-02-16T16:29:56.412Z,17.30
2019-02-16T16:32:36.259Z,17.80
2019-02-16T16:35:17.058Z,17.77
2019-02-16T16:37:47.725Z,17.92
2019-02-16T16:40:18.337Z,17.40
2019-02-16T16:42:48.958Z,16.60
2019-02-16T16:45:19.638Z,16.97
2019-02-16T16:47:53.265Z,15.98
2019-02-16T16:50:23.993Z,18.07
2019-02-16T16:53:06.620Z,17.40
2019-02-16T16:55:52.129Z,16.60
2019-02-16T16:58:40.860Z,16.93
2019-02-16T17:01:23.627Z,16.25
2019-02-16T17:03:56.782Z,16.95
2019-02-16T17:06:27.502Z,17.02
2019-02-16T17:09:00.662Z,15.98
2019-02-16T17:11:47.257Z,15.45
2019-02-16T17:14:35.718Z,16.30
2019-02-16T17:17:21.017Z,16.65
2019-02-16T17:19:54.276Z,16.12
2019-02-16T17:22:24.965Z,14.53
2019-02-16T17:25:10.937Z,15.50
2019-02-16T17:27:47.700Z,16.00
2019-02-16T17:30:21.237Z,16.00
2019-02-16T17:32:51.841Z,15.83
2019-02-16T17:35:25.444Z,15.85
2019-02-16T17:37:56.114Z,16.00
2019-02-16T17:40:26.734Z,16.65
2019-02-16T17:43:03.129Z,15.95
2019-02-16T17:45:45.742Z,15.95
2019-02-16T17:48:16.479Z,16.00
2019-02-16T17:50:59.096Z,16.73
2019-02-16T17:53:39.031Z,15.58
2019-02-16T17:56:12.538Z,15.68
2019-02-16T17:58:59.785Z,15.23
2019-02-16T18:01:46.562Z,15.80
2019-02-16T18:04:26.190Z,15.40
2019-02-16T18:06:59.760Z,15.55
2019-02-16T18:09:33.129Z,16.10
2019-02-16T18:12:15.772Z,15.85
2019-02-16T18:14:46.470Z,16.42
2019-02-16T18:17:26.049Z,15.70
2019-02-16T18:19:59.394Z,16.25
2019-02-16T18:22:42.121Z,16.37
2019-02-16T18:25:12.995Z,15.30
2019-02-16T18:27:43.710Z,15.53
2019-02-16T18:30:20.395Z,15.45
2019-02-16T18:32:54.033Z,15.65
2019-02-16T18:35:27.362Z,16.30
2019-02-16T18:38:00.802Z,16.82
2019-02-16T18:40:33.952Z,16.60
2019-02-16T18:43:10.567Z,16.30
2019-02-16T18:45:46.621Z,16.45
2019-02-16T18:48:19.708Z,16.57
2019-02-16T18:50:53.015Z,17.55
2019-02-16T18:53:32.446Z,17.57
2019-02-16T18:56:03.290Z,16.70
2019-02-16T18:58:33.933Z,16.35
2019-02-16T19:01:07.247Z,17.60
2019-02-16T19:03:43.438Z,16.82
2019-02-16T19:06:16.699Z,16.90
2019-02-16T19:08:47.306Z,16.93
2019-02-16T19:11:20.551Z,16.60
2019-02-16T19:13:59.989Z,17.25
2019-02-16T19:16:45.470Z,15.90
2019-02-16T19:19:30.997Z,18.30
2019-02-16T19:22:07.985Z,16.02
2019-02-16T19:24:53.868Z,16.45
2019-02-16T19:27:27.056Z,16.35
2019-02-16T19:30:03.462Z,15.95
2019-02-16T19:32:45.926Z,15.78
2019-02-16T19:35:19.101Z,16.60
2019-02-16T19:37:49.804Z,17.27
2019-02-16T19:40:36.580Z,18.23
2019-02-16T19:43:23.672Z,16.90
2019-02-16T19:45:56.846Z,16.82
2019-02-16T19:48:33.135Z,16.55
2019-02-16T19:51:09.651Z,18.40
2019-02-16T19:53:43.054Z,17.30
2019-02-16T19:56:31.427Z,17.07
2019-02-16T19:59:11.022Z,17.10
2019-02-16T20:01:41.661Z,16.55
2019-02-16T20:04:15.245Z,17.60
2019-02-16T20:06:45.892Z,17.95
2019-02-16T20:09:19.312Z,17.20
2019-02-16T20:11:52.832Z,17.17
2019-02-16T20:14:23.437Z,17.07
2019-02-16T20:16:54.106Z,17.67
2019-02-16T20:19:24.786Z,17.35
2019-02-16T20:22:13.630Z,17.65
2019-02-16T20:24:44.235Z,17.17
2019-02-16T20:27:37.031Z,17.48
2019-02-16T20:30:07.885Z,16.30
2019-02-16T20:32:41.397Z,16.77
2019-02-16T20:35:18.239Z,17.20
2019-02-16T20:37:55.513Z,16.25
2019-02-16T20:40:26.123Z,17.50
2019-02-16T20:42:56.726Z,17.35
2019-02-16T20:45:43.750Z,17.00
2019-02-16T20:48:17.486Z,17.77
2019-02-16T20:50:54.002Z,17.12
2019-02-16T20:53:30.227Z,16.50
2019-02-16T20:56:12.796Z,17.15
2019-02-16T20:58:59.341Z,17.30
2019-02-16T21:01:38.903Z,16.82
2019-02-16T21:04:12.471Z,17.62
2019-02-16T21:06:46.124Z,17.10
2019-02-16T21:09:31.966Z,17.15
2019-02-16T21:12:02.574Z,17.57
2019-02-16T21:14:33.290Z,17.42
2019-02-16T21:17:20.010Z,17.73
2019-02-16T21:19:53.466Z,17.00
2019-02-16T21:22:30.062Z,16.77
2019-02-16T21:25:00.745Z,16.57
2019-02-16T21:27:32.071Z,17.42
2019-02-16T21:30:05.490Z,16.80
2019-02-16T21:32:36.093Z,16.05
2019-02-16T21:35:13.812Z,16.82
2019-02-16T21:37:56.249Z,17.00
2019-02-16T21:40:38.851Z,16.77
2019-02-16T21:43:12.058Z,17.25
2019-02-16T21:45:48.470Z,17.57
2019-02-16T21:48:19.146Z,16.95
2019-02-16T21:50:55.688Z,17.60
2019-02-16T21:53:31.974Z,17.10
2019-02-16T21:56:18.541Z,16.75
2019-02-16T21:59:01.256Z,17.07
2019-02-16T22:01:31.902Z,16.10
2019-02-16T22:04:08.661Z,16.77
2019-02-16T22:06:45.114Z,16.87
2019-02-16T22:09:18.628Z,16.20
2019-02-16T22:11:52.226Z,17.12
2019-02-16T22:14:21.201Z,16.20
2019-02-16T22:16:50.212Z,16.07
2019-02-16T22:19:19.254Z,16.60
2019-02-16T22:21:48.294Z,16.35
2019-02-16T22:24:17.316Z,16.15
2019-02-16T22:26:46.359Z,16.62
2019-02-16T22:29:15.432Z,16.50
2019-02-16T22:31:44.399Z,17.30
2019-02-16T22:34:13.710Z,16.70
2019-02-16T22:36:42.742Z,17.12
2019-02-16T22:39:11.701Z,16.75
2019-02-16T22:41:40.734Z,16.23
2019-02-16T22:44:09.726Z,17.00
2019-02-16T22:46:38.690Z,16.70
2019-02-16T22:49:07.786Z,17.07
2019-02-16T22:51:36.829Z,16.55
2019-02-16T22:54:05.790Z,16.93
2019-02-16T22:56:34.766Z,15.85
2019-02-16T22:59:03.843Z,16.50
2019-02-16T23:01:33.155Z,16.35
2019-02-16T23:04:02.319Z,16.55
2019-02-16T23:06:31.430Z,17.52
2019-02-16T23:09:00.405Z,17.82
2019-02-16T23:11:29.404Z,16.23
2019-02-16T23:13:58.379Z,16.23
2019-02-16T23:16:27.334Z,15.60
2019-02-16T23:18:56.304Z,16.67
2019-02-16T23:21:25.338Z,17.00
2019-02-16T23:23:54.311Z,16.50
2019-02-16T23:26:23.290Z,16.77
2019-02-16T23:28:52.391Z,17.05
2019-02-16T23:31:21.741Z,17.12
2019-02-16T23:33:50.742Z,16.27
2019-02-16T23:36:19.708Z,16.00
2019-02-16T23:38:48.691Z,16.15
2019-02-16T23:41:17.755Z,16.70
2019-02-16T23:43:46.871Z,16.95
2019-02-16T23:46:18.960Z,16.48
2019-02-16T23:48:46.952Z,16.42
2019-02-16T23:51:15.967Z,16.25
2019-02-16T23:53:45.016Z,15.93
2019-02-16T23:56:14.115Z,15.58
2019-02-16T23:58:49.341Z,16.00
